Aviation Digital Data Service (ADDS)

Output produced by METARs form (0333 UTC 18 June 2019)
found at http://www.aviationweather.gov/metar/data/
 
Forecast for: OPKC (KARACHI INTL ARP, PK)
Text: TAF OPKC 180030Z 1803/1812 26005G15KT 6000 SCT020
Forecast period: 0300 to 1200 UTC 18 June 2019
Forecast type: FROM: standard forecast or significant change
Winds: from the W (260 degrees) at 6 MPH (5 knots; 2.6 m/s)
gusting to 17 MPH (15 knots; 7.7 m/s)
Visibility: 4 miles (6 km)
Ceiling: at least 12,000 feet AGL
Clouds: scattered clouds at 2000 feet AGL
Weather: no significant weather forecast for this period